sensor_id;sensor_type;location;lat;lon;timestamp;temperature;humidity
21540;DHT22;10931;52.164;5.518;2023-11-22T00:00:22;16.30;80.30
21540;DHT22;10931;52.164;5.518;2023-11-22T00:03:05;16.30;80.20
21540;DHT22;10931;52.164;5.518;2023-11-22T00:05:32;16.30;80.20
21540;DHT22;10931;52.164;5.518;2023-11-22T00:08:28;16.30;80.20
21540;DHT22;10931;52.164;5.518;2023-11-22T00:10:54;16.30;80.30
21540;DHT22;10931;52.164;5.518;2023-11-22T00:13:24;16.30;80.20
21540;DHT22;10931;52.164;5.518;2023-11-22T00:16:05;16.30;80.20
21540;DHT22;10931;52.164;5.518;2023-11-22T00:18:37;16.30;80.20
21540;DHT22;10931;52.164;5.518;2023-11-22T00:21:04;16.30;80.20
21540;DHT22;10931;52.164;5.518;2023-11-22T00:23:30;16.30;80.20
21540;DHT22;10931;52.164;5.518;2023-11-22T00:26:09;16.30;80.20
21540;DHT22;10931;52.164;5.518;2023-11-22T00:29:08;16.30;80.20
21540;DHT22;10931;52.164;5.518;2023-11-22T00:31:36;16.30;80.30
21540;DHT22;10931;52.164;5.518;2023-11-22T00:34:02;16.30;80.20
21540;DHT22;10931;52.164;5.518;2023-11-22T00:36:33;16.30;80.30
21540;DHT22;10931;52.164;5.518;2023-11-22T00:38:59;16.30;80.20
21540;DHT22;10931;52.164;5.518;2023-11-22T00:41:31;16.30;80.20
21540;DHT22;10931;52.164;5.518;2023-11-22T00:43:58;16.30;80.20
21540;DHT22;10931;52.164;5.518;2023-11-22T00:46:30;16.20;80.10
21540;DHT22;10931;52.164;5.518;2023-11-22T00:48:58;16.30;80.10
21540;DHT22;10931;52.164;5.518;2023-11-22T00:51:36;16.20;80.10
21540;DHT22;10931;52.164;5.518;2023-11-22T00:54:02;16.20;80.10
21540;DHT22;10931;52.164;5.518;2023-11-22T00:56:28;16.20;80.10
21540;DHT22;10931;52.164;5.518;2023-11-22T00:58:57;16.20;80.10
21540;DHT22;10931;52.164;5.518;2023-11-22T01:01:32;16.20;80.10
21540;DHT22;10931;52.164;5.518;2023-11-22T01:03:58;16.20;80.10
21540;DHT22;10931;52.164;5.518;2023-11-22T01:06:48;16.20;80.10
21540;DHT22;10931;52.164;5.518;2023-11-22T01:09:26;16.20;80.10
21540;DHT22;10931;52.164;5.518;2023-11-22T01:11:58;16.20;80.10
21540;DHT22;10931;52.164;5.518;2023-11-22T01:14:24;16.20;80.10
21540;DHT22;10931;52.164;5.518;2023-11-22T01:16:57;16.20;80.10
21540;DHT22;10931;52.164;5.518;2023-11-22T01:19:25;16.20;80.10
21540;DHT22;10931;52.164;5.518;2023-11-22T01:21:56;16.20;80.10
21540;DHT22;10931;52.164;5.518;2023-11-22T01:24:41;16.20;80.10
21540;DHT22;10931;52.164;5.518;2023-11-22T01:27:12;16.20;80.10
21540;DHT22;10931;52.164;5.518;2023-11-22T01:29:38;16.10;80.00
21540;DHT22;10931;52.164;5.518;2023-11-22T01:32:18;16.10;80.10
21540;DHT22;10931;52.164;5.518;2023-11-22T01:35:01;16.10;80.10
21540;DHT22;10931;52.164;5.518;2023-11-22T01:37:27;16.10;80.00
21540;DHT22;10931;52.164;5.518;2023-11-22T01:40:12;16.10;80.00
21540;DHT22;10931;52.164;5.518;2023-11-22T01:42:40;16.10;80.00
21540;DHT22;10931;52.164;5.518;2023-11-22T01:45:14;16.10;80.00
21540;DHT22;10931;52.164;5.518;2023-11-22T01:47:42;16.10;80.00
21540;DHT22;10931;52.164;5.518;2023-11-22T01:50:11;16.10;80.00
21540;DHT22;10931;52.164;5.518;2023-11-22T01:52:43;16.10;80.00
21540;DHT22;10931;52.164;5.518;2023-11-22T01:55:12;16.10;80.00
21540;DHT22;10931;52.164;5.518;2023-11-22T01:57:38;16.10;80.00
21540;DHT22;10931;52.164;5.518;2023-11-22T02:00:05;16.10;80.00
21540;DHT22;10931;52.164;5.518;2023-11-22T02:02:34;16.10;80.00
21540;DHT22;10931;52.164;5.518;2023-11-22T02:05:00;16.10;80.00
21540;DHT22;10931;52.164;5.518;2023-11-22T02:07:29;16.00;80.00
21540;DHT22;10931;52.164;5.518;2023-11-22T02:09:55;16.00;80.00
21540;DHT22;10931;52.164;5.518;2023-11-22T02:12:22;16.00;80.00
21540;DHT22;10931;52.164;5.518;2023-11-22T02:14:49;16.00;80.00
21540;DHT22;10931;52.164;5.518;2023-11-22T02:17:15;16.00;80.00
21540;DHT22;10931;52.164;5.518;2023-11-22T02:19:48;16.00;80.00
21540;DHT22;10931;52.164;5.518;2023-11-22T02:22:14;16.00;80.00
21540;DHT22;10931;52.164;5.518;2023-11-22T02:24:39;16.00;80.00
21540;DHT22;10931;52.164;5.518;2023-11-22T02:27:06;16.00;80.00
21540;DHT22;10931;52.164;5.518;2023-11-22T02:29:32;16.00;80.00
21540;DHT22;10931;52.164;5.518;2023-11-22T02:31:57;16.00;80.00
21540;DHT22;10931;52.164;5.518;2023-11-22T02:34:26;16.00;79.90
21540;DHT22;10931;52.164;5.518;2023-11-22T02:37:03;16.00;80.00
21540;DHT22;10931;52.164;5.518;2023-11-22T02:39:41;16.00;79.90
21540;DHT22;10931;52.164;5.518;2023-11-22T02:42:09;16.00;80.00
21540;DHT22;10931;52.164;5.518;2023-11-22T02:44:34;15.90;79.80
21540;DHT22;10931;52.164;5.518;2023-11-22T02:47:00;16.00;80.00
21540;DHT22;10931;52.164;5.518;2023-11-22T02:50:01;15.90;79.80
21540;DHT22;10931;52.164;5.518;2023-11-22T02:52:29;15.90;79.80
21540;DHT22;10931;52.164;5.518;2023-11-22T02:55:04;15.90;79.80
21540;DHT22;10931;52.164;5.518;2023-11-22T02:57:38;15.90;79.80
21540;DHT22;10931;52.164;5.518;2023-11-22T03:00:07;15.90;79.80
21540;DHT22;10931;52.164;5.518;2023-11-22T03:02:40;15.90;79.80
21540;DHT22;10931;52.164;5.518;2023-11-22T03:05:09;15.90;79.80
21540;DHT22;10931;52.164;5.518;2023-11-22T03:07:57;15.90;79.80
21540;DHT22;10931;52.164;5.518;2023-11-22T03:10:26;15.90;79.80
21540;DHT22;10931;52.164;5.518;2023-11-22T03:12:54;15.90;79.80
21540;DHT22;10931;52.164;5.518;2023-11-22T03:15:37;15.90;79.80
21540;DHT22;10931;52.164;5.518;2023-11-22T03:18:11;15.90;79.80
21540;DHT22;10931;52.164;5.518;2023-11-22T03:20:46;15.90;79.80
21540;DHT22;10931;52.164;5.518;2023-11-22T03:23:14;15.80;79.80
21540;DHT22;10931;52.164;5.518;2023-11-22T03:25:45;15.80;79.80
21540;DHT22;10931;52.164;5.518;2023-11-22T03:28:25;15.80;79.80
21540;DHT22;10931;52.164;5.518;2023-11-22T03:30:56;15.80;79.80
21540;DHT22;10931;52.164;5.518;2023-11-22T03:33:24;15.80;79.70
21540;DHT22;10931;52.164;5.518;2023-11-22T03:35:50;15.80;79.70
21540;DHT22;10931;52.164;5.518;2023-11-22T03:38:34;15.80;79.80
21540;DHT22;10931;52.164;5.518;2023-11-22T03:41:01;15.80;79.80
21540;DHT22;10931;52.164;5.518;2023-11-22T03:43:31;15.80;79.70
21540;DHT22;10931;52.164;5.518;2023-11-22T03:46:10;15.80;79.70
21540;DHT22;10931;52.164;5.518;2023-11-22T03:48:39;15.80;79.70
21540;DHT22;10931;52.164;5.518;2023-11-22T03:51:05;15.70;79.60
21540;DHT22;10931;52.164;5.518;2023-11-22T03:53:33;15.70;79.60
21540;DHT22;10931;52.164;5.518;2023-11-22T03:55:58;15.80;79.80
21540;DHT22;10931;52.164;5.518;2023-11-22T03:58:43;15.80;79.70
21540;DHT22;10931;52.164;5.518;2023-11-22T04:01:22;15.80;79.70
21540;DHT22;10931;52.164;5.518;2023-11-22T04:03:59;15.80;79.70
21540;DHT22;10931;52.164;5.518;2023-11-22T04:06:31;15.70;79.60
21540;DHT22;10931;52.164;5.518;2023-11-22T04:08:59;15.70;79.70
21540;DHT22;10931;52.164;5.518;2023-11-22T04:11:24;15.70;79.60
21540;DHT22;10931;52.164;5.518;2023-11-22T04:13:50;15.70;79.60
21540;DHT22;10931;52.164;5.518;2023-11-22T04:16:18;15.70;79.60
21540;DHT22;10931;52.164;5.518;2023-11-22T04:18:44;15.70;79.60
21540;DHT22;10931;52.164;5.518;2023-11-22T04:21:09;15.70;79.60
21540;DHT22;10931;52.164;5.518;2023-11-22T04:23:35;15.70;79.60
21540;DHT22;10931;52.164;5.518;2023-11-22T04:26:06;15.60;79.60
21540;DHT22;10931;52.164;5.518;2023-11-22T04:28:33;15.70;79.60
21540;DHT22;10931;52.164;5.518;2023-11-22T04:31:17;15.70;79.60
21540;DHT22;10931;52.164;5.518;2023-11-22T04:33:50;15.70;79.60
21540;DHT22;10931;52.164;5.518;2023-11-22T04:36:24;15.60;79.60
21540;DHT22;10931;52.164;5.518;2023-11-22T04:38:50;15.60;79.60
21540;DHT22;10931;52.164;5.518;2023-11-22T04:41:22;15.60;79.60
21540;DHT22;10931;52.164;5.518;2023-11-22T04:43:50;15.60;79.60
21540;DHT22;10931;52.164;5.518;2023-11-22T04:46:19;15.60;79.50
21540;DHT22;10931;52.164;5.518;2023-11-22T04:48:45;15.60;79.50
21540;DHT22;10931;52.164;5.518;2023-11-22T04:51:18;15.60;79.50
21540;DHT22;10931;52.164;5.518;2023-11-22T04:56:39;15.60;79.50
21540;DHT22;10931;52.164;5.518;2023-11-22T04:59:11;15.60;79.50
21540;DHT22;10931;52.164;5.518;2023-11-22T05:01:36;15.60;79.50
21540;DHT22;10931;52.164;5.518;2023-11-22T05:04:05;15.60;79.50
21540;DHT22;10931;52.164;5.518;2023-11-22T05:06:30;15.60;79.50
21540;DHT22;10931;52.164;5.518;2023-11-22T05:08:56;15.50;79.40
21540;DHT22;10931;52.164;5.518;2023-11-22T05:11:24;15.60;79.60
21540;DHT22;10931;52.164;5.518;2023-11-22T05:13:52;15.50;79.40
21540;DHT22;10931;52.164;5.518;2023-11-22T05:16:20;15.50;79.40
21540;DHT22;10931;52.164;5.518;2023-11-22T05:18:52;15.50;79.40
21540;DHT22;10931;52.164;5.518;2023-11-22T05:21:23;15.50;79.40
21540;DHT22;10931;52.164;5.518;2023-11-22T05:23:56;15.50;79.40
21540;DHT22;10931;52.164;5.518;2023-11-22T05:26:25;15.50;79.40
21540;DHT22;10931;52.164;5.518;2023-11-22T05:29:00;15.50;79.40
21540;DHT22;10931;52.164;5.518;2023-11-22T05:31:32;15.50;79.40
21540;DHT22;10931;52.164;5.518;2023-11-22T05:34:16;15.50;79.40
21540;DHT22;10931;52.164;5.518;2023-11-22T05:36:55;15.50;79.50
21540;DHT22;10931;52.164;5.518;2023-11-22T05:39:28;15.50;79.40
21540;DHT22;10931;52.164;5.518;2023-11-22T05:41:56;15.40;79.40
21540;DHT22;10931;52.164;5.518;2023-11-22T05:44:24;15.40;79.40
21540;DHT22;10931;52.164;5.518;2023-11-22T05:47:13;15.40;79.30
21540;DHT22;10931;52.164;5.518;2023-11-22T05:49:58;15.40;79.30
21540;DHT22;10931;52.164;5.518;2023-11-22T05:52:29;15.40;79.40
21540;DHT22;10931;52.164;5.518;2023-11-22T05:54:55;15.40;79.30
21540;DHT22;10931;52.164;5.518;2023-11-22T05:57:40;15.40;79.40
21540;DHT22;10931;52.164;5.518;2023-11-22T06:00:18;15.40;79.40
21540;DHT22;10931;52.164;5.518;2023-11-22T06:02:51;15.40;79.30
21540;DHT22;10931;52.164;5.518;2023-11-22T06:05:23;15.40;79.40
21540;DHT22;10931;52.164;5.518;2023-11-22T06:07:56;15.40;79.30
21540;DHT22;10931;52.164;5.518;2023-11-22T06:10:26;15.40;79.30
21540;DHT22;10931;52.164;5.518;2023-11-22T06:12:52;15.40;79.30
21540;DHT22;10931;52.164;5.518;2023-11-22T06:15:20;15.40;79.30
21540;DHT22;10931;52.164;5.518;2023-11-22T06:17:47;15.40;79.40
21540;DHT22;10931;52.164;5.518;2023-11-22T06:20:18;15.30;79.20
21540;DHT22;10931;52.164;5.518;2023-11-22T06:22:52;15.30;79.20
21540;DHT22;10931;52.164;5.518;2023-11-22T06:25:27;15.30;79.20
21540;DHT22;10931;52.164;5.518;2023-11-22T06:27:53;15.30;79.20
21540;DHT22;10931;52.164;5.518;2023-11-22T06:30:41;15.30;79.20
21540;DHT22;10931;52.164;5.518;2023-11-22T06:33:21;15.30;79.20
21540;DHT22;10931;52.164;5.518;2023-11-22T06:36:05;15.30;79.20
21540;DHT22;10931;52.164;5.518;2023-11-22T06:38:56;15.30;79.20
21540;DHT22;10931;52.164;5.518;2023-11-22T06:41:36;15.30;79.20
21540;DHT22;10931;52.164;5.518;2023-11-22T06:44:10;15.30;79.20
21540;DHT22;10931;52.164;5.518;2023-11-22T06:46:53;15.30;79.20
21540;DHT22;10931;52.164;5.518;2023-11-22T06:49:34;15.30;79.20
21540;DHT22;10931;52.164;5.518;2023-11-22T06:52:00;15.30;79.20
21540;DHT22;10931;52.164;5.518;2023-11-22T06:54:28;15.20;79.20
21540;DHT22;10931;52.164;5.518;2023-11-22T06:56:54;15.20;79.20
21540;DHT22;10931;52.164;5.518;2023-11-22T06:59:28;15.20;79.20
21540;DHT22;10931;52.164;5.518;2023-11-22T07:01:57;15.20;79.10
21540;DHT22;10931;52.164;5.518;2023-11-22T07:04:23;15.20;79.20
21540;DHT22;10931;52.164;5.518;2023-11-22T07:06:49;15.20;79.20
21540;DHT22;10931;52.164;5.518;2023-11-22T07:09:15;15.20;79.20
21540;DHT22;10931;52.164;5.518;2023-11-22T07:11:45;15.20;79.20
21540;DHT22;10931;52.164;5.518;2023-11-22T07:14:13;15.20;79.10
21540;DHT22;10931;52.164;5.518;2023-11-22T07:16:50;15.20;79.20
21540;DHT22;10931;52.164;5.518;2023-11-22T07:19:16;15.20;79.10
21540;DHT22;10931;52.164;5.518;2023-11-22T07:21:44;15.20;79.20
21540;DHT22;10931;52.164;5.518;2023-11-22T07:24:10;15.20;79.20
21540;DHT22;10931;52.164;5.518;2023-11-22T07:26:39;15.10;79.10
21540;DHT22;10931;52.164;5.518;2023-11-22T07:29:07;15.20;79.10
21540;DHT22;10931;52.164;5.518;2023-11-22T07:31:33;15.20;79.20
21540;DHT22;10931;52.164;5.518;2023-11-22T07:34:08;15.10;79.10
21540;DHT22;10931;52.164;5.518;2023-11-22T07:36:50;15.20;79.20
21540;DHT22;10931;52.164;5.518;2023-11-22T07:39:18;15.10;79.10
21540;DHT22;10931;52.164;5.518;2023-11-22T07:41:45;15.10;79.10
21540;DHT22;10931;52.164;5.518;2023-11-22T07:44:21;15.10;79.10
21540;DHT22;10931;52.164;5.518;2023-11-22T07:49:32;15.10;79.10
21540;DHT22;10931;52.164;5.518;2023-11-22T07:52:05;15.10;79.10
21540;DHT22;10931;52.164;5.518;2023-11-22T07:54:31;15.10;79.90
21540;DHT22;10931;52.164;5.518;2023-11-22T07:56:59;15.10;79.10
21540;DHT22;10931;52.164;5.518;2023-11-22T07:59:33;15.00;79.10
21540;DHT22;10931;52.164;5.518;2023-11-22T08:02:05;15.00;79.00
21540;DHT22;10931;52.164;5.518;2023-11-22T08:04:45;15.00;79.00
21540;DHT22;10931;52.164;5.518;2023-11-22T08:07:14;15.00;79.00
21540;DHT22;10931;52.164;5.518;2023-11-22T08:09:45;15.10;79.10
21540;DHT22;10931;52.164;5.518;2023-11-22T08:12:11;15.00;79.10
21540;DHT22;10931;52.164;5.518;2023-11-22T08:14:39;15.00;79.00
21540;DHT22;10931;52.164;5.518;2023-11-22T08:17:07;15.00;79.00
21540;DHT22;10931;52.164;5.518;2023-11-22T08:19:37;15.00;79.00
21540;DHT22;10931;52.164;5.518;2023-11-22T08:22:08;15.00;79.90
21540;DHT22;10931;52.164;5.518;2023-11-22T08:24:34;15.00;79.00
21540;DHT22;10931;52.164;5.518;2023-11-22T08:27:00;15.00;79.00
21540;DHT22;10931;52.164;5.518;2023-11-22T08:29:27;15.00;79.00
21540;DHT22;10931;52.164;5.518;2023-11-22T08:31:53;15.00;79.00
21540;DHT22;10931;52.164;5.518;2023-11-22T08:34:19;15.00;79.00
21540;DHT22;10931;52.164;5.518;2023-11-22T08:36:53;15.00;79.00
21540;DHT22;10931;52.164;5.518;2023-11-22T08:39:23;15.00;79.00
21540;DHT22;10931;52.164;5.518;2023-11-22T08:41:50;15.00;79.00
21540;DHT22;10931;52.164;5.518;2023-11-22T08:44:16;15.00;79.00
21540;DHT22;10931;52.164;5.518;2023-11-22T08:46:42;15.00;78.90
21540;DHT22;10931;52.164;5.518;2023-11-22T08:49:07;14.90;78.90
21540;DHT22;10931;52.164;5.518;2023-11-22T08:51:36;14.90;78.90
21540;DHT22;10931;52.164;5.518;2023-11-22T08:54:15;14.90;78.90
21540;DHT22;10931;52.164;5.518;2023-11-22T08:56:42;14.90;78.90
21540;DHT22;10931;52.164;5.518;2023-11-22T08:59:18;14.90;78.90
21540;DHT22;10931;52.164;5.518;2023-11-22T09:01:44;14.90;78.90
21540;DHT22;10931;52.164;5.518;2023-11-22T09:04:17;14.90;78.90
21540;DHT22;10931;52.164;5.518;2023-11-22T09:06:45;14.90;78.90
21540;DHT22;10931;52.164;5.518;2023-11-22T09:09:33;14.90;78.90
21540;DHT22;10931;52.164;5.518;2023-11-22T09:12:09;14.90;78.90
21540;DHT22;10931;52.164;5.518;2023-11-22T09:14:48;14.90;78.90
21540;DHT22;10931;52.164;5.518;2023-11-22T09:17:23;14.90;78.90
21540;DHT22;10931;52.164;5.518;2023-11-22T09:19:50;14.90;78.90
21540;DHT22;10931;52.164;5.518;2023-11-22T09:22:18;14.90;78.90
21540;DHT22;10931;52.164;5.518;2023-11-22T09:24:57;14.90;78.90
21540;DHT22;10931;52.164;5.518;2023-11-22T09:27:28;14.80;78.80
21540;DHT22;10931;52.164;5.518;2023-11-22T09:29:56;14.90;78.90
21540;DHT22;10931;52.164;5.518;2023-11-22T09:32:39;14.90;78.90
21540;DHT22;10931;52.164;5.518;2023-11-22T09:41:46;14.80;78.80
21540;DHT22;10931;52.164;5.518;2023-11-22T09:44:39;14.80;78.80
21540;DHT22;10931;52.164;5.518;2023-11-22T09:47:08;14.80;78.80
21540;DHT22;10931;52.164;5.518;2023-11-22T09:49:40;14.80;78.80
21540;DHT22;10931;52.164;5.518;2023-11-22T09:52:08;14.80;78.80
21540;DHT22;10931;52.164;5.518;2023-11-22T09:54:45;14.80;78.80
21540;DHT22;10931;52.164;5.518;2023-11-22T09:57:11;14.80;78.80
21540;DHT22;10931;52.164;5.518;2023-11-22T09:59:38;14.80;78.80
21540;DHT22;10931;52.164;5.518;2023-11-22T10:02:11;14.80;78.90
21540;DHT22;10931;52.164;5.518;2023-11-22T10:04:37;14.80;78.80
21540;DHT22;10931;52.164;5.518;2023-11-22T10:07:14;14.80;78.80
21540;DHT22;10931;52.164;5.518;2023-11-22T10:09:46;14.80;78.80
21540;DHT22;10931;52.164;5.518;2023-11-22T10:12:20;14.80;78.80
21540;DHT22;10931;52.164;5.518;2023-11-22T10:14:47;14.80;78.80
21540;DHT22;10931;52.164;5.518;2023-11-22T10:17:13;14.80;78.80
21540;DHT22;10931;52.164;5.518;2023-11-22T10:19:42;14.80;78.80
21540;DHT22;10931;52.164;5.518;2023-11-22T10:22:09;14.80;78.90
21540;DHT22;10931;52.164;5.518;2023-11-22T10:25:11;14.70;78.70
21540;DHT22;10931;52.164;5.518;2023-11-22T10:27:59;14.70;78.70
21540;DHT22;10931;52.164;5.518;2023-11-22T10:30:27;14.80;78.80
21540;DHT22;10931;52.164;5.518;2023-11-22T10:32:54;14.70;78.70
21540;DHT22;10931;52.164;5.518;2023-11-22T10:35:35;14.80;78.80
21540;DHT22;10931;52.164;5.518;2023-11-22T10:38:10;14.70;78.70
21540;DHT22;10931;52.164;5.518;2023-11-22T10:40:39;14.80;78.80
21540;DHT22;10931;52.164;5.518;2023-11-22T10:43:15;14.80;78.80
21540;DHT22;10931;52.164;5.518;2023-11-22T10:45:49;14.70;78.70
21540;DHT22;10931;52.164;5.518;2023-11-22T10:48:26;14.70;78.70
21540;DHT22;10931;52.164;5.518;2023-11-22T10:51:01;14.70;78.70
21540;DHT22;10931;52.164;5.518;2023-11-22T10:53:38;14.70;79.50
21540;DHT22;10931;52.164;5.518;2023-11-22T10:56:15;14.70;78.70
21540;DHT22;10931;52.164;5.518;2023-11-22T10:58:51;14.70;78.70
21540;DHT22;10931;52.164;5.518;2023-11-22T11:01:23;14.70;78.70
21540;DHT22;10931;52.164;5.518;2023-11-22T11:07:12;14.70;78.60
21540;DHT22;10931;52.164;5.518;2023-11-22T11:09:41;14.70;78.70
21540;DHT22;10931;52.164;5.518;2023-11-22T11:12:10;14.70;78.70
21540;DHT22;10931;52.164;5.518;2023-11-22T11:14:36;14.70;78.70
21540;DHT22;10931;52.164;5.518;2023-11-22T11:17:03;14.70;78.60
21540;DHT22;10931;52.164;5.518;2023-11-22T11:19:40;14.70;78.60
21540;DHT22;10931;52.164;5.518;2023-11-22T11:22:08;14.70;78.60
21540;DHT22;10931;52.164;5.518;2023-11-22T11:24:47;14.70;78.60
21540;DHT22;10931;52.164;5.518;2023-11-22T11:29:51;14.70;78.60
21540;DHT22;10931;52.164;5.518;2023-11-22T11:32:35;14.70;78.60
21540;DHT22;10931;52.164;5.518;2023-11-22T11:35:11;14.70;78.60
21540;DHT22;10931;52.164;5.518;2023-11-22T11:37:41;14.70;79.40
21540;DHT22;10931;52.164;5.518;2023-11-22T11:43:20;14.70;78.60
21540;DHT22;10931;52.164;5.518;2023-11-22T11:45:53;14.70;78.60
21540;DHT22;10931;52.164;5.518;2023-11-22T11:48:22;14.70;78.60
21540;DHT22;10931;52.164;5.518;2023-11-22T11:50:52;14.70;78.60
21540;DHT22;10931;52.164;5.518;2023-11-22T11:53:28;14.70;78.60
21540;DHT22;10931;52.164;5.518;2023-11-22T11:55:57;14.70;78.60
21540;DHT22;10931;52.164;5.518;2023-11-22T11:58:23;14.70;78.60
21540;DHT22;10931;52.164;5.518;2023-11-22T12:00:54;14.70;78.60
21540;DHT22;10931;52.164;5.518;2023-11-22T12:03:20;14.70;78.60
21540;DHT22;10931;52.164;5.518;2023-11-22T12:05:50;14.70;78.60
21540;DHT22;10931;52.164;5.518;2023-11-22T12:08:16;14.70;78.60
21540;DHT22;10931;52.164;5.518;2023-11-22T12:10:46;14.70;78.60
21540;DHT22;10931;52.164;5.518;2023-11-22T12:13:21;14.70;78.60
21540;DHT22;10931;52.164;5.518;2023-11-22T12:16:07;14.70;78.60
21540;DHT22;10931;52.164;5.518;2023-11-22T12:18:47;14.70;78.60
21540;DHT22;10931;52.164;5.518;2023-11-22T12:21:13;14.70;78.50
21540;DHT22;10931;52.164;5.518;2023-11-22T12:23:51;14.70;78.50
21540;DHT22;10931;52.164;5.518;2023-11-22T12:26:22;14.70;78.50
21540;DHT22;10931;52.164;5.518;2023-11-22T12:28:58;14.70;78.50
21540;DHT22;10931;52.164;5.518;2023-11-22T12:31:30;14.70;78.50
21540;DHT22;10931;52.164;5.518;2023-11-22T12:34:02;14.80;78.60
21540;DHT22;10931;52.164;5.518;2023-11-22T12:36:34;14.80;78.60
21540;DHT22;10931;52.164;5.518;2023-11-22T12:39:12;14.70;78.50
21540;DHT22;10931;52.164;5.518;2023-11-22T12:41:43;14.70;78.50
21540;DHT22;10931;52.164;5.518;2023-11-22T12:44:11;14.70;78.50
21540;DHT22;10931;52.164;5.518;2023-11-22T12:46:54;14.70;78.50
21540;DHT22;10931;52.164;5.518;2023-11-22T12:50:10;14.70;78.50
21540;DHT22;10931;52.164;5.518;2023-11-22T12:52:54;14.70;78.50
21540;DHT22;10931;52.164;5.518;2023-11-22T12:55:20;14.70;78.50
21540;DHT22;10931;52.164;5.518;2023-11-22T12:57:58;14.80;78.60
21540;DHT22;10931;52.164;5.518;2023-11-22T13:00:43;14.70;78.50
21540;DHT22;10931;52.164;5.518;2023-11-22T13:03:14;14.80;78.50
21540;DHT22;10931;52.164;5.518;2023-11-22T13:05:43;14.80;78.50
21540;DHT22;10931;52.164;5.518;2023-11-22T13:08:12;14.70;78.50
21540;DHT22;10931;52.164;5.518;2023-11-22T13:10:50;14.80;78.50
21540;DHT22;10931;52.164;5.518;2023-11-22T13:13:27;14.70;78.50
21540;DHT22;10931;52.164;5.518;2023-11-22T13:15:59;14.70;78.50
21540;DHT22;10931;52.164;5.518;2023-11-22T13:18:26;14.70;78.50
21540;DHT22;10931;52.164;5.518;2023-11-22T13:20:58;14.70;78.50
21540;DHT22;10931;52.164;5.518;2023-11-22T13:23:27;14.70;78.50
21540;DHT22;10931;52.164;5.518;2023-11-22T13:26:00;14.80;78.60
21540;DHT22;10931;52.164;5.518;2023-11-22T13:28:27;14.80;78.60
21540;DHT22;10931;52.164;5.518;2023-11-22T13:30:54;14.70;78.50
21540;DHT22;10931;52.164;5.518;2023-11-22T13:33:49;14.70;78.50
21540;DHT22;10931;52.164;5.518;2023-11-22T13:36:21;14.80;78.50
21540;DHT22;10931;52.164;5.518;2023-11-22T13:38:58;14.70;78.50
21540;DHT22;10931;52.164;5.518;2023-11-22T13:44:03;14.70;78.50
21540;DHT22;10931;52.164;5.518;2023-11-22T13:46:28;14.70;78.50
21540;DHT22;10931;52.164;5.518;2023-11-22T13:48:54;14.80;78.50
21540;DHT22;10931;52.164;5.518;2023-11-22T13:51:30;14.70;78.50
21540;DHT22;10931;52.164;5.518;2023-11-22T13:54:08;14.80;78.50
21540;DHT22;10931;52.164;5.518;2023-11-22T13:56:37;14.70;78.50
21540;DHT22;10931;52.164;5.518;2023-11-22T13:59:05;14.80;78.50
21540;DHT22;10931;52.164;5.518;2023-11-22T14:01:33;14.70;78.50
21540;DHT22;10931;52.164;5.518;2023-11-22T14:04:02;14.80;78.50
21540;DHT22;10931;52.164;5.518;2023-11-22T14:06:28;14.70;78.50
21540;DHT22;10931;52.164;5.518;2023-11-22T14:08:56;14.70;78.50
21540;DHT22;10931;52.164;5.518;2023-11-22T14:11:21;14.70;78.50
21540;DHT22;10931;52.164;5.518;2023-11-22T14:13:55;14.70;79.20
21540;DHT22;10931;52.164;5.518;2023-11-22T14:19:41;14.70;78.50
21540;DHT22;10931;52.164;5.518;2023-11-22T14:22:30;14.70;78.50
21540;DHT22;10931;52.164;5.518;2023-11-22T14:24:57;14.70;78.50
21540;DHT22;10931;52.164;5.518;2023-11-22T14:30:42;14.70;78.50
21540;DHT22;10931;52.164;5.518;2023-11-22T14:33:12;14.80;78.50
21540;DHT22;10931;52.164;5.518;2023-11-22T14:35:38;14.70;78.60
21540;DHT22;10931;52.164;5.518;2023-11-22T14:38:05;14.70;78.50
21540;DHT22;10931;52.164;5.518;2023-11-22T14:40:36;14.70;78.50
21540;DHT22;10931;52.164;5.518;2023-11-22T14:43:13;14.80;78.60
21540;DHT22;10931;52.164;5.518;2023-11-22T14:45:39;14.80;78.60
21540;DHT22;10931;52.164;5.518;2023-11-22T14:48:05;14.80;78.60
21540;DHT22;10931;52.164;5.518;2023-11-22T14:50:34;14.80;78.60
21540;DHT22;10931;52.164;5.518;2023-11-22T14:52:59;14.80;78.60
21540;DHT22;10931;52.164;5.518;2023-11-22T14:55:28;14.70;78.60
21540;DHT22;10931;52.164;5.518;2023-11-22T14:57:57;14.80;78.60
21540;DHT22;10931;52.164;5.518;2023-11-22T15:00:25;14.70;78.60
21540;DHT22;10931;52.164;5.518;2023-11-22T15:02:54;14.80;78.60
21540;DHT22;10931;52.164;5.518;2023-11-22T15:05:21;14.80;78.60
21540;DHT22;10931;52.164;5.518;2023-11-22T15:13:46;14.80;78.60
21540;DHT22;10931;52.164;5.518;2023-11-22T15:16:33;14.80;78.60
21540;DHT22;10931;52.164;5.518;2023-11-22T15:19:00;14.80;78.70
21540;DHT22;10931;52.164;5.518;2023-11-22T15:21:30;14.80;78.60
21540;DHT22;10931;52.164;5.518;2023-11-22T15:23:55;14.80;78.70
21540;DHT22;10931;52.164;5.518;2023-11-22T15:26:26;14.80;78.70
21540;DHT22;10931;52.164;5.518;2023-11-22T15:28:54;14.80;78.70
21540;DHT22;10931;52.164;5.518;2023-11-22T15:31:22;14.80;78.70
21540;DHT22;10931;52.164;5.518;2023-11-22T15:33:48;14.80;78.70
21540;DHT22;10931;52.164;5.518;2023-11-22T15:36:14;14.80;78.70
21540;DHT22;10931;52.164;5.518;2023-11-22T15:38:44;14.80;78.70
21540;DHT22;10931;52.164;5.518;2023-11-22T15:41:10;14.80;78.80
21540;DHT22;10931;52.164;5.518;2023-11-22T15:43:36;14.80;78.70
21540;DHT22;10931;52.164;5.518;2023-11-22T15:46:04;14.80;78.70
21540;DHT22;10931;52.164;5.518;2023-11-22T15:48:35;14.80;78.80
21540;DHT22;10931;52.164;5.518;2023-11-22T15:51:06;14.80;78.80
21540;DHT22;10931;52.164;5.518;2023-11-22T15:53:38;14.80;78.80
21540;DHT22;10931;52.164;5.518;2023-11-22T15:56:04;14.80;78.80
21540;DHT22;10931;52.164;5.518;2023-11-22T15:58:53;14.80;78.80
21540;DHT22;10931;52.164;5.518;2023-11-22T16:01:29;14.80;78.80
21540;DHT22;10931;52.164;5.518;2023-11-22T16:04:03;14.80;78.80
21540;DHT22;10931;52.164;5.518;2023-11-22T16:06:31;14.80;78.80
21540;DHT22;10931;52.164;5.518;2023-11-22T16:09:06;14.80;78.80
21540;DHT22;10931;52.164;5.518;2023-11-22T16:11:43;14.80;78.80
21540;DHT22;10931;52.164;5.518;2023-11-22T16:14:23;14.80;78.90
21540;DHT22;10931;52.164;5.518;2023-11-22T16:17:17;14.80;78.80
21540;DHT22;10931;52.164;5.518;2023-11-22T16:19:57;14.80;78.90
21540;DHT22;10931;52.164;5.518;2023-11-22T16:22:29;14.80;78.80
21540;DHT22;10931;52.164;5.518;2023-11-22T16:24:55;14.80;78.90
21540;DHT22;10931;52.164;5.518;2023-11-22T16:27:22;14.80;78.90
21540;DHT22;10931;52.164;5.518;2023-11-22T16:29:48;14.80;78.90
21540;DHT22;10931;52.164;5.518;2023-11-22T16:32:17;14.80;78.90
21540;DHT22;10931;52.164;5.518;2023-11-22T16:34:58;14.80;79.70